createdAt,value
2019-02-25T00:02:25.211Z,102884
2019-02-25T00:07:48.047Z,102878
2019-02-25T00:13:10.716Z,102874
2019-02-25T00:18:33.402Z,102877
2019-02-25T00:23:56.147Z,102876
2019-02-25T00:29:19.048Z,102879
2019-02-25T00:34:41.804Z,102876
2019-02-25T00:40:04.557Z,102880
2019-02-25T00:45:27.261Z,102890
2019-02-25T00:50:50.338Z,102888
2019-02-25T00:56:13.114Z,102885
2019-02-25T01:01:35.812Z,102875
2019-02-25T01:06:58.766Z,102878
2019-02-25T01:12:21.700Z,102872
2019-02-25T01:17:44.412Z,102862
2019-02-25T01:23:07.133Z,102859
2019-02-25T01:28:29.838Z,102858
2019-02-25T01:33:52.648Z,102855
2019-02-25T01:39:15.897Z,102850
2019-02-25T01:44:38.639Z,102855
2019-02-25T01:50:01.401Z,102847
2019-02-25T01:55:24.149Z,102855
2019-02-25T02:00:46.957Z,102858
2019-02-25T02:06:09.710Z,102855
2019-02-25T02:11:33.359Z,102850
2019-02-25T02:16:56.135Z,102855
2019-02-25T02:22:19.591Z,102865
2019-02-25T02:27:43.796Z,102862
2019-02-25T02:33:06.582Z,102861
2019-02-25T02:38:29.343Z,102867
2019-02-25T02:43:52.001Z,102861
2019-02-25T02:49:14.853Z,102855
2019-02-25T02:54:37.543Z,102852
2019-02-25T03:00:01.504Z,102854
2019-02-25T03:05:24.147Z,102851
2019-02-25T03:10:47.293Z,102854
2019-02-25T03:16:09.942Z,102860
2019-02-25T03:21:33.553Z,102857
2019-02-25T03:26:56.493Z,102861
2019-02-25T03:32:19.151Z,102861
2019-02-25T03:37:41.814Z,102857
2019-02-25T03:43:04.497Z,102858
2019-02-25T03:48:27.441Z,102853
2019-02-25T03:53:51.110Z,102860
2019-02-25T03:59:13.761Z,102860
2019-02-25T04:04:36.451Z,102861
2019-02-25T04:09:59.206Z,102860
2019-02-25T04:15:21.880Z,102860
2019-02-25T04:20:45.030Z,102864
2019-02-25T04:26:07.706Z,102862
2019-02-25T04:31:30.541Z,102855
2019-02-25T04:36:55.375Z,102855
2019-02-25T04:42:18.239Z,102859
2019-02-25T04:47:41.054Z,102855
2019-02-25T04:53:03.779Z,102859
2019-02-25T04:58:26.459Z,102859
2019-02-25T05:03:58.754Z,102859
2019-02-25T05:09:21.483Z,102859
2019-02-25T05:14:44.314Z,102863
2019-02-25T05:20:07.079Z,102866
2019-02-25T05:25:29.890Z,102858
2019-02-25T05:30:52.681Z,102863
2019-02-25T05:36:15.515Z,102867
2019-02-25T05:41:38.328Z,102868
2019-02-25T05:47:01.045Z,102874
2019-02-25T05:52:23.782Z,102872
2019-02-25T05:57:46.435Z,102878
2019-02-25T06:03:09.240Z,102876
2019-02-25T06:08:32.068Z,102875
2019-02-25T06:13:54.965Z,102877
2019-02-25T06:19:17.827Z,102882
2019-02-25T06:24:40.656Z,102882
2019-02-25T06:30:04.481Z,102884
2019-02-25T06:35:27.241Z,102882
2019-02-25T06:40:50.177Z,102885
2019-02-25T06:46:12.988Z,102883
2019-02-25T06:51:35.775Z,102869
2019-02-25T06:56:58.454Z,102890
2019-02-25T07:02:21.128Z,102896
2019-02-25T07:07:43.884Z,102890
2019-02-25T07:13:07.634Z,102891
2019-02-25T07:18:30.408Z,102900
2019-02-25T07:23:53.432Z,102905
2019-02-25T07:29:16.252Z,102916
2019-02-25T07:34:39.457Z,102913
2019-02-25T07:40:02.131Z,102921
2019-02-25T07:45:25.292Z,102913
2019-02-25T07:50:48.085Z,102927
2019-02-25T07:56:10.743Z,102935
2019-02-25T08:01:33.656Z,102936
2019-02-25T08:06:56.552Z,102940
2019-02-25T08:12:20.237Z,102938
2019-02-25T08:17:43.214Z,102943
2019-02-25T08:23:06.733Z,102947
2019-02-25T08:28:29.385Z,102951
2019-02-25T08:33:52.066Z,102959
2019-02-25T08:39:14.692Z,102961
2019-02-25T08:44:37.351Z,102962
2019-02-25T08:50:00.969Z,102956
2019-02-25T08:55:23.618Z,102955
2019-02-25T09:00:46.597Z,102963
2019-02-25T09:06:09.320Z,102973
2019-02-25T09:11:32.019Z,102974
2019-02-25T09:16:55.501Z,102966
2019-02-25T09:22:18.216Z,102967
2019-02-25T09:27:41.860Z,102970
2019-02-25T09:33:04.574Z,102978
2019-02-25T09:38:27.270Z,102975
2019-02-25T09:43:49.965Z,102974
2019-02-25T09:49:12.742Z,102973
2019-02-25T09:54:35.450Z,102973
2019-02-25T09:59:58.149Z,102968
2019-02-25T10:05:20.866Z,102965
2019-02-25T10:10:43.562Z,102960
2019-02-25T10:16:06.283Z,102946
2019-02-25T10:21:29.025Z,102954
2019-02-25T10:26:52.430Z,102954
2019-02-25T10:32:15.188Z,102951
2019-02-25T10:37:38.750Z,102935
2019-02-25T10:43:01.952Z,102928
2019-02-25T10:48:25.833Z,102925
2019-02-25T10:53:49.055Z,102920
2019-02-25T10:59:10.996Z,102913
2019-02-25T11:04:33.740Z,102903
2019-02-25T11:09:56.481Z,102910
2019-02-25T11:15:20.231Z,102902
2019-02-25T11:20:42.900Z,102896
2019-02-25T11:26:05.636Z,102892
2019-02-25T11:31:29.126Z,102885
2019-02-25T11:36:52.646Z,102881
2019-02-25T11:42:16.445Z,102868
2019-02-25T11:47:38.513Z,102860
2019-02-25T11:53:01.269Z,102844
2019-02-25T11:58:23.939Z,102833
2019-02-25T12:03:46.586Z,102812
2019-02-25T12:09:09.234Z,102809
2019-02-25T12:14:31.921Z,102798
2019-02-25T12:19:54.725Z,102797
2019-02-25T12:25:17.483Z,102791
2019-02-25T12:30:40.938Z,102777
2019-02-25T12:36:03.881Z,102782
2019-02-25T12:41:27.293Z,102794
2019-02-25T12:46:50.040Z,102793
2019-02-25T12:52:12.806Z,102782
2019-02-25T12:57:35.556Z,102775
2019-02-25T13:02:58.222Z,102770
2019-02-25T13:08:20.934Z,102780
2019-02-25T13:13:43.549Z,102778
2019-02-25T13:19:06.264Z,102765
2019-02-25T13:24:30.779Z,102755
2019-02-25T13:29:52.613Z,102757
2019-02-25T13:35:15.262Z,102758
2019-02-25T13:40:37.943Z,102748
2019-02-25T13:46:01.420Z,102750
2019-02-25T13:51:24.079Z,102750
2019-02-25T13:56:46.693Z,102753
2019-02-25T14:02:09.924Z,102754
2019-02-25T14:07:34.223Z,102754
2019-02-25T14:12:55.291Z,102747
2019-02-25T14:18:18.053Z,102750
2019-02-25T14:23:40.711Z,102747
2019-02-25T14:29:03.380Z,102747
2019-02-25T14:34:26.022Z,102744
2019-02-25T14:39:49.993Z,102738
2019-02-25T14:45:14.646Z,102738
2019-02-25T14:50:36.310Z,102734
2019-02-25T14:56:02.938Z,102738
2019-02-25T15:01:23.117Z,102735
2019-02-25T15:06:46.230Z,102737
2019-02-25T15:12:11.072Z,102741
2019-02-25T15:17:31.592Z,102747
2019-02-25T15:22:54.230Z,102746
2019-02-25T15:28:19.977Z,102746
2019-02-25T15:33:42.451Z,102742
2019-02-25T15:39:03.723Z,102741
2019-02-25T15:44:26.355Z,102745
2019-02-25T15:49:49.835Z,102737
2019-02-25T15:55:16.684Z,102730
2019-02-25T16:00:37.379Z,102739
2019-02-25T16:06:01.994Z,102740
2019-02-25T16:11:25.550Z,102733
2019-02-25T16:16:46.456Z,102722
2019-02-25T16:22:09.642Z,102722
2019-02-25T16:27:31.832Z,102709
2019-02-25T16:32:54.557Z,102711
2019-02-25T16:38:21.035Z,102721
2019-02-25T16:43:43.219Z,102715
2019-02-25T16:49:05.940Z,102714
2019-02-25T16:54:28.610Z,102712
2019-02-25T16:59:53.273Z,102722
2019-02-25T17:05:15.156Z,102728
2019-02-25T17:10:37.833Z,102725
2019-02-25T17:16:02.694Z,102720
2019-02-25T17:21:23.251Z,102727
2019-02-25T17:26:46.953Z,102729
2019-02-25T17:32:09.615Z,102730
2019-02-25T17:37:33.764Z,102740
2019-02-25T17:42:56.895Z,102746
2019-02-25T17:48:21.173Z,102750
2019-02-25T17:53:43.902Z,102740
2019-02-25T17:59:07.491Z,102747
2019-02-25T18:04:30.744Z,102739
2019-02-25T18:09:55.555Z,102747
2019-02-25T18:15:21.549Z,102740
2019-02-25T18:20:43.861Z,102739
2019-02-25T18:26:08.509Z,102733
2019-02-25T18:31:32.761Z,102727
2019-02-25T18:36:55.754Z,102725
2019-02-25T18:42:26.512Z,102724
2019-02-25T18:47:50.561Z,102724
2019-02-25T18:53:13.208Z,102732
2019-02-25T18:58:37.838Z,102737
2019-02-25T19:03:59.853Z,102732
2019-02-25T19:09:23.119Z,102728
2019-02-25T19:14:46.279Z,102743
2019-02-25T19:20:09.948Z,102745
2019-02-25T19:25:32.788Z,102744
2019-02-25T19:30:55.549Z,102746
2019-02-25T19:36:19.378Z,102746
2019-02-25T19:41:45.046Z,102744
2019-02-25T19:47:07.778Z,102736
2019-02-25T19:52:34.591Z,102729
2019-02-25T19:57:54.866Z,102728
2019-02-25T20:03:17.605Z,102725
2019-02-25T20:08:40.373Z,102720
2019-02-25T20:14:04.230Z,102712
2019-02-25T20:19:26.998Z,102706
2019-02-25T20:24:50.599Z,102700
2019-02-25T20:30:13.285Z,102701
2019-02-25T20:35:37.208Z,102701
2019-02-25T20:41:02.469Z,102699
2019-02-25T20:46:24.401Z,102697
2019-02-25T20:51:48.263Z,102697
2019-02-25T20:57:12.499Z,102697
2019-02-25T21:02:34.517Z,102693
2019-02-25T21:07:59.721Z,102692
2019-02-25T21:13:22.007Z,102690
2019-02-25T21:18:44.378Z,102689
2019-02-25T21:24:08.723Z,102683
2019-02-25T21:29:31.740Z,102684
2019-02-25T21:34:55.831Z,102694
2019-02-25T21:40:20.014Z,102700
2019-02-25T21:45:46.037Z,102699
2019-02-25T21:51:07.984Z,102695
2019-02-25T21:56:30.504Z,102689
2019-02-25T22:01:55.153Z,102696
2019-02-25T22:07:17.746Z,102701
2019-02-25T22:12:42.516Z,102706
2019-02-25T22:18:03.870Z,102711
2019-02-25T22:23:28.326Z,102705
2019-02-25T22:28:53.047Z,102703
2019-02-25T22:34:15.856Z,102703
2019-02-25T22:39:38.519Z,102691
2019-02-25T22:45:02.157Z,102681
2019-02-25T22:50:27.377Z,102669
2019-02-25T22:55:52.209Z,102658
2019-02-25T23:01:16.989Z,102665
2019-02-25T23:06:39.596Z,102689
2019-02-25T23:12:01.128Z,102686
2019-02-25T23:17:24.471Z,102680
2019-02-25T23:22:48.342Z,102670
2019-02-25T23:28:12.133Z,102678
2019-02-25T23:33:38.117Z,102674
2019-02-25T23:39:01.620Z,102682
2019-02-25T23:44:24.167Z,102683
2019-02-25T23:49:46.167Z,102682
2019-02-25T23:55:12.156Z,102685
